createdAt,value
2016-05-17T00:00:41.437Z,0
2016-05-17T00:01:41.612Z,0
2016-05-17T00:02:41.615Z,0
2016-05-17T00:03:41.805Z,0
2016-05-17T00:04:41.667Z,0
2016-05-17T00:05:41.685Z,0
2016-05-17T00:06:41.891Z,0
2016-05-17T00:07:41.738Z,0
2016-05-17T00:08:41.740Z,0
2016-05-17T00:09:41.774Z,0
2016-05-17T00:10:41.808Z,0
2016-05-17T00:11:41.670Z,0
2016-05-17T00:12:41.517Z,0
2016-05-17T00:13:42.035Z,0
2016-05-17T00:14:42.038Z,0
2016-05-17T00:15:42.071Z,0
2016-05-17T00:16:41.777Z,0
2016-05-17T00:17:41.952Z,0
2016-05-17T00:18:42.157Z,0
2016-05-17T00:19:42.146Z,0
2016-05-17T00:20:42.194Z,0
2016-05-17T00:21:42.369Z,0
2016-05-17T00:22:42.247Z,0
2016-05-17T00:23:42.234Z,0
2016-05-17T00:24:42.268Z,0
2016-05-17T00:25:42.286Z,0
2016-05-17T00:26:42.164Z,0
2016-05-17T00:27:42.323Z,0
2016-05-17T00:28:42.201Z,0
2016-05-17T00:29:42.203Z,0
2016-05-17T00:30:42.378Z,0
2016-05-17T00:31:42.427Z,0
2016-05-17T00:32:42.446Z,0
2016-05-17T00:33:42.292Z,0
2016-05-17T00:34:42.310Z,0
2016-05-17T00:35:42.328Z,0
2016-05-17T00:36:42.472Z,0
2016-05-17T00:37:42.537Z,0
2016-05-17T00:38:42.415Z,0
2016-05-17T00:39:42.417Z,0
2016-05-17T00:40:42.608Z,0
2016-05-17T00:41:42.610Z,0
2016-05-17T00:42:42.644Z,0
2016-05-17T00:43:42.522Z,0
2016-05-17T00:44:42.900Z,0
2016-05-17T00:45:42.544Z,0
2016-05-17T00:46:42.577Z,0
2016-05-17T00:47:42.752Z,0
2016-05-17T00:48:42.770Z,0
2016-05-17T00:49:42.647Z,0
2016-05-17T00:50:42.665Z,0
2016-05-17T00:51:42.856Z,0
2016-05-17T00:52:42.718Z,0
2016-05-17T00:53:42.737Z,0
2016-05-17T00:54:42.754Z,0
2016-05-17T00:55:42.617Z,0
2016-05-17T00:56:42.791Z,0
2016-05-17T00:57:42.950Z,0
2016-05-17T00:58:42.984Z,0
2016-05-17T00:59:42.862Z,0
2016-05-17T01:00:42.865Z,0
2016-05-17T01:01:43.055Z,0
2016-05-17T01:02:42.917Z,0
2016-05-17T01:03:43.092Z,0
2016-05-17T01:04:42.953Z,0
2016-05-17T01:05:42.987Z,0
2016-05-17T01:06:42.942Z,0
2016-05-17T01:07:43.181Z,0
2016-05-17T01:08:43.042Z,0
2016-05-17T01:09:43.061Z,0
2016-05-17T01:10:43.236Z,0
2016-05-17T01:11:43.128Z,0
2016-05-17T01:12:43.288Z,0
2016-05-17T01:13:43.291Z,0
2016-05-17T01:14:43.183Z,0
2016-05-17T01:15:43.358Z,0
2016-05-17T01:16:43.377Z,0
2016-05-17T01:17:43.395Z,0
2016-05-17T01:18:43.272Z,0
2016-05-17T01:19:43.275Z,0
2016-05-17T01:20:43.310Z,0
2016-05-17T01:21:43.358Z,0
2016-05-17T01:22:43.502Z,0
2016-05-17T01:23:43.363Z,0
2016-05-17T01:24:43.429Z,0
2016-05-17T01:25:43.588Z,0
2016-05-17T01:26:43.435Z,0
2016-05-17T01:27:43.453Z,0
2016-05-17T01:28:43.627Z,0
2016-05-17T01:29:43.645Z,0
2016-05-17T01:30:43.664Z,0
2016-05-17T01:31:43.526Z,0
2016-05-17T01:32:43.716Z,0
2016-05-17T01:33:43.751Z,0
2016-05-17T01:34:43.753Z,0
2016-05-17T01:35:43.771Z,0
2016-05-17T01:36:43.696Z,0
2016-05-17T01:37:43.823Z,0
2016-05-17T01:38:43.842Z,0
2016-05-17T01:39:43.860Z,0
2016-05-17T01:40:43.909Z,0
2016-05-17T01:41:43.912Z,0
2016-05-17T01:42:43.619Z,0
2016-05-17T01:43:43.949Z,0
2016-05-17T01:44:43.983Z,0
2016-05-17T01:45:43.985Z,0
2016-05-17T01:46:44.004Z,0
2016-05-17T01:47:44.038Z,0
2016-05-17T01:48:44.055Z,0
2016-05-17T01:49:43.934Z,0
2016-05-17T01:50:44.108Z,0
2016-05-17T01:51:44.127Z,0
2016-05-17T01:52:43.989Z,0
2016-05-17T01:53:44.210Z,0
2016-05-17T01:54:44.182Z,0
2016-05-17T01:55:44.199Z,0
2016-05-17T01:56:44.234Z,0
2016-05-17T01:57:44.252Z,0
2016-05-17T01:58:44.271Z,0
2016-05-17T01:59:44.289Z,0
2016-05-17T02:00:44.307Z,0
2016-05-17T02:01:44.201Z,0
2016-05-17T02:02:44.203Z,0
2016-05-17T02:03:44.393Z,0
2016-05-17T02:04:44.239Z,0
2016-05-17T02:05:44.274Z,0
2016-05-17T02:06:44.464Z,0
2016-05-17T02:07:44.467Z,0
2016-05-17T02:08:44.329Z,0
2016-05-17T02:09:44.503Z,0
2016-05-17T02:10:44.522Z,0
2016-05-17T02:11:44.556Z,0
2016-05-17T02:12:44.574Z,0
2016-05-17T02:13:44.592Z,0
2016-05-17T02:14:44.626Z,0
2016-05-17T02:15:44.472Z,0
2016-05-17T02:16:44.663Z,0
2016-05-17T02:17:44.525Z,0
2016-05-17T02:18:44.683Z,0
2016-05-17T02:19:44.406Z,0
2016-05-17T02:20:44.751Z,0
2016-05-17T02:21:44.816Z,0
2016-05-17T02:22:44.772Z,0
2016-05-17T02:23:44.838Z,0
2016-05-17T02:24:44.825Z,0
2016-05-17T02:25:44.530Z,0
2016-05-17T02:26:44.862Z,0
2016-05-17T02:27:45.115Z,0
2016-05-17T02:28:44.898Z,0
2016-05-17T02:29:44.791Z,0
2016-05-17T02:30:44.669Z,0
2016-05-17T02:31:44.844Z,0
2016-05-17T02:32:44.674Z,0
2016-05-17T02:33:44.709Z,0
2016-05-17T02:34:45.023Z,0
2016-05-17T02:35:44.964Z,0
2016-05-17T02:36:45.575Z,0
2016-05-17T02:37:44.938Z,0
2016-05-17T02:38:44.940Z,0
2016-05-17T02:39:45.272Z,0
2016-05-17T02:40:44.696Z,0
2016-05-17T02:41:45.027Z,0
2016-05-17T02:42:45.201Z,0
2016-05-17T02:43:45.219Z,0
2016-05-17T02:44:45.269Z,0
2016-05-17T02:45:45.256Z,0
2016-05-17T02:46:45.275Z,0
2016-05-17T02:47:45.309Z,0
2016-05-17T02:48:45.327Z,0
2016-05-17T02:49:45.344Z,0
2016-05-17T02:50:45.222Z,0
2016-05-17T02:51:46.008Z,0
2016-05-17T02:52:45.432Z,0
2016-05-17T02:53:45.278Z,0
2016-05-17T02:54:45.468Z,0
2016-05-17T02:55:45.158Z,0
2016-05-17T02:56:45.583Z,0
2016-05-17T02:57:45.538Z,0
2016-05-17T02:58:45.526Z,0
2016-05-17T02:59:45.544Z,0
2016-05-17T03:00:45.422Z,0
2016-05-17T03:01:45.612Z,0
2016-05-17T03:02:45.459Z,0
2016-05-17T03:03:45.476Z,0
2016-05-17T03:04:45.510Z,0
2016-05-17T03:05:45.685Z,0
2016-05-17T03:06:45.547Z,0
2016-05-17T03:07:45.565Z,0
2016-05-17T03:08:45.271Z,0
2016-05-17T03:09:45.758Z,0
2016-05-17T03:10:45.776Z,0
2016-05-17T03:11:45.795Z,0
2016-05-17T03:12:45.829Z,0
2016-05-17T03:13:45.691Z,0
2016-05-17T03:14:45.866Z,0
2016-05-17T03:15:45.743Z,0
2016-05-17T03:16:45.747Z,0
2016-05-17T03:17:45.764Z,0
2016-05-17T03:18:45.955Z,0
2016-05-17T03:19:45.864Z,0
2016-05-17T03:20:45.553Z,0
2016-05-17T03:21:46.134Z,0
2016-05-17T03:22:46.027Z,0
2016-05-17T03:23:46.061Z,0
2016-05-17T03:24:45.939Z,0
2016-05-17T03:25:45.941Z,0
2016-05-17T03:26:46.116Z,0
2016-05-17T03:27:46.151Z,0
2016-05-17T03:28:46.154Z,0
2016-05-17T03:29:46.327Z,0
2016-05-17T03:30:46.190Z,0
2016-05-17T03:31:46.207Z,0
2016-05-17T03:32:46.180Z,0
2016-05-17T03:33:46.089Z,0
2016-05-17T03:34:46.279Z,0
2016-05-17T03:35:46.157Z,0
2016-05-17T03:36:46.065Z,0
2016-05-17T03:37:46.365Z,0
2016-05-17T03:38:46.351Z,0
2016-05-17T03:39:46.074Z,0
2016-05-17T03:40:46.420Z,0
2016-05-17T03:41:46.423Z,0
2016-05-17T03:42:46.456Z,0
2016-05-17T03:43:46.319Z,0
2016-05-17T03:44:46.337Z,0
2016-05-17T03:45:46.511Z,0
2016-05-17T03:46:46.530Z,0
2016-05-17T03:47:46.563Z,0
2016-05-17T03:48:46.583Z,0
2016-05-17T03:49:46.428Z,0
2016-05-17T03:50:46.618Z,0
2016-05-17T03:51:46.591Z,0
2016-05-17T03:52:46.655Z,0
2016-05-17T03:53:46.517Z,0
2016-05-17T03:54:46.535Z,0
2016-05-17T03:55:46.726Z,0
2016-05-17T03:56:46.729Z,0
2016-05-17T03:57:46.450Z,0
2016-05-17T03:58:46.780Z,0
2016-05-17T03:59:46.799Z,0
2016-05-17T04:00:46.818Z,0
2016-05-17T04:01:46.835Z,0
2016-05-17T04:02:46.713Z,0
2016-05-17T04:03:46.715Z,0
2016-05-17T04:04:46.907Z,0
2016-05-17T04:05:46.785Z,0
2016-05-17T04:06:46.927Z,0
2016-05-17T04:07:46.805Z,0
2016-05-17T04:08:46.823Z,0
2016-05-17T04:09:46.842Z,0
2016-05-17T04:10:47.031Z,0
2016-05-17T04:11:47.034Z,0
2016-05-17T04:12:46.756Z,0
2016-05-17T04:13:47.087Z,0
2016-05-17T04:14:47.105Z,0
2016-05-17T04:15:47.123Z,0
2016-05-17T04:16:47.001Z,0
2016-05-17T04:17:47.019Z,0
2016-05-17T04:18:47.053Z,0
2016-05-17T04:19:47.196Z,0
2016-05-17T04:20:47.247Z,0
2016-05-17T04:21:46.953Z,0
2016-05-17T04:22:47.142Z,0
2016-05-17T04:23:47.333Z,0
2016-05-17T04:24:47.319Z,0
2016-05-17T04:25:47.182Z,0
2016-05-17T04:26:47.355Z,5
2016-05-17T04:27:47.374Z,5
2016-05-17T04:28:47.252Z,5
2016-05-17T04:29:47.427Z,5
2016-05-17T04:30:47.288Z,5
2016-05-17T04:31:47.463Z,5
2016-05-17T04:32:47.482Z,5
2016-05-17T04:33:47.499Z,5
2016-05-17T04:34:47.518Z,5
2016-05-17T04:35:47.536Z,5
2016-05-17T04:36:47.946Z,5
2016-05-17T04:37:47.590Z,5
2016-05-17T04:38:47.451Z,5
2016-05-17T04:39:47.641Z,5
2016-05-17T04:40:47.643Z,5
2016-05-17T04:41:47.506Z,5
2016-05-17T04:42:47.523Z,5
2016-05-17T04:43:47.714Z,5
2016-05-17T04:44:47.748Z,5
2016-05-17T04:45:47.595Z,5
2016-05-17T04:46:47.801Z,5
2016-05-17T04:47:47.647Z,5
2016-05-17T04:48:47.806Z,5
2016-05-17T04:49:47.839Z,5
2016-05-17T04:50:47.686Z,5
2016-05-17T04:51:48.266Z,5
2016-05-17T04:52:47.755Z,5
2016-05-17T04:53:47.742Z,5
2016-05-17T04:54:47.775Z,10
2016-05-17T04:55:47.809Z,10
2016-05-17T04:56:47.983Z,10
2016-05-17T04:57:48.080Z,5
2016-05-17T04:58:48.161Z,10
2016-05-17T04:59:47.898Z,10
2016-05-17T05:00:47.916Z,5
2016-05-17T05:01:47.935Z,10
2016-05-17T05:02:47.953Z,10
2016-05-17T05:03:47.955Z,10
2016-05-17T05:04:48.130Z,10
2016-05-17T05:05:48.164Z,10
2016-05-17T05:06:49.057Z,5
2016-05-17T05:07:47.903Z,5
2016-05-17T05:08:48.093Z,5
2016-05-17T05:09:48.197Z,5
2016-05-17T05:10:48.335Z,5
2016-05-17T05:11:48.413Z,5
2016-05-17T05:12:48.458Z,5
2016-05-17T05:13:48.363Z,5
2016-05-17T05:14:48.582Z,5
2016-05-17T05:15:48.616Z,5
2016-05-17T05:16:48.651Z,10
2016-05-17T05:17:48.543Z,10
2016-05-17T05:18:48.421Z,10
2016-05-17T05:19:48.606Z,10
2016-05-17T05:20:48.473Z,10
2016-05-17T05:21:48.950Z,5
2016-05-17T05:22:48.692Z,5
2016-05-17T05:23:48.543Z,5
2016-05-17T05:24:48.878Z,5
2016-05-17T05:25:48.915Z,5
2016-05-17T05:26:48.935Z,5
2016-05-17T05:27:48.939Z,5
2016-05-17T05:28:48.819Z,5
2016-05-17T05:29:48.870Z,10
2016-05-17T05:30:48.701Z,10
2016-05-17T05:31:49.079Z,10
2016-05-17T05:32:49.130Z,10
2016-05-17T05:33:49.087Z,15
2016-05-17T05:34:48.949Z,20
2016-05-17T05:35:48.984Z,20
2016-05-17T05:36:49.549Z,15
2016-05-17T05:37:49.005Z,10
2016-05-17T05:38:49.196Z,10
2016-05-17T05:39:49.043Z,10
2016-05-17T05:40:49.232Z,10
2016-05-17T05:41:49.095Z,10
2016-05-17T05:42:49.113Z,10
2016-05-17T05:43:49.304Z,10
2016-05-17T05:44:49.321Z,15
2016-05-17T05:45:49.418Z,15
2016-05-17T05:46:49.218Z,15
2016-05-17T05:47:49.251Z,15
2016-05-17T05:48:49.411Z,15
2016-05-17T05:49:49.287Z,15
2016-05-17T05:50:49.306Z,20
2016-05-17T05:51:49.325Z,20
2016-05-17T05:52:49.171Z,20
2016-05-17T05:53:49.518Z,20
2016-05-17T05:54:49.521Z,20
2016-05-17T05:55:49.398Z,20
2016-05-17T05:56:49.589Z,20
2016-05-17T05:57:49.420Z,20
2016-05-17T05:58:49.297Z,15
2016-05-17T05:59:49.487Z,15
2016-05-17T06:00:49.490Z,15
2016-05-17T06:01:49.524Z,15
2016-05-17T06:02:49.698Z,15
2016-05-17T06:03:49.576Z,15
2016-05-17T06:04:49.578Z,15
2016-05-17T06:05:49.597Z,15
2016-05-17T06:06:49.646Z,20
2016-05-17T06:07:49.790Z,20
2016-05-17T06:08:49.808Z,20
2016-05-17T06:09:49.514Z,20
2016-05-17T06:10:49.860Z,20
2016-05-17T06:11:49.738Z,20
2016-05-17T06:12:49.896Z,20
2016-05-17T06:13:49.759Z,20
2016-05-17T06:14:49.809Z,20
2016-05-17T06:15:50.108Z,20
2016-05-17T06:16:50.001Z,20
2016-05-17T06:17:49.692Z,20
2016-05-17T06:18:50.038Z,20
2016-05-17T06:19:49.884Z,20
2016-05-17T06:20:50.669Z,20
2016-05-17T06:21:50.187Z,20
2016-05-17T06:22:49.955Z,20
2016-05-17T06:23:50.161Z,20
2016-05-17T06:24:50.304Z,20
2016-05-17T06:25:50.026Z,20
2016-05-17T06:26:50.045Z,20
2016-05-17T06:27:50.220Z,20
2016-05-17T06:28:50.252Z,20
2016-05-17T06:29:50.287Z,20
2016-05-17T06:30:50.133Z,20
2016-05-17T06:31:50.151Z,25
2016-05-17T06:32:50.326Z,25
2016-05-17T06:33:50.345Z,25
2016-05-17T06:34:50.378Z,25
2016-05-17T06:35:50.225Z,25
2016-05-17T06:36:50.353Z,25
2016-05-17T06:37:50.433Z,25
2016-05-17T06:38:53.686Z,25
2016-05-17T06:39:50.469Z,25
2016-05-17T06:40:50.504Z,20
2016-05-17T06:41:50.507Z,20
2016-05-17T06:42:50.541Z,25
2016-05-17T06:43:50.558Z,25
2016-05-17T06:44:50.421Z,25
2016-05-17T06:45:50.439Z,25
2016-05-17T06:46:50.613Z,30
2016-05-17T06:47:50.648Z,30
2016-05-17T06:48:50.525Z,30
2016-05-17T06:49:50.684Z,30
2016-05-17T06:50:50.406Z,30
2016-05-17T06:51:51.377Z,30
2016-05-17T06:52:50.598Z,30
2016-05-17T06:53:50.601Z,30
2016-05-17T06:54:50.635Z,30
2016-05-17T06:55:50.653Z,30
2016-05-17T06:56:50.828Z,30
2016-05-17T06:57:50.861Z,30
2016-05-17T06:58:50.865Z,30
2016-05-17T06:59:50.898Z,30
2016-05-17T07:00:50.995Z,25
2016-05-17T07:01:51.044Z,20
2016-05-17T07:02:51.063Z,20
2016-05-17T07:03:50.987Z,15
2016-05-17T07:04:51.021Z,15
2016-05-17T07:05:51.117Z,20
2016-05-17T07:06:50.917Z,25
2016-05-17T07:07:51.092Z,25
2016-05-17T07:08:51.094Z,25
2016-05-17T07:09:51.019Z,30
2016-05-17T07:10:51.162Z,30
2016-05-17T07:11:51.165Z,25
2016-05-17T07:12:51.199Z,30
2016-05-17T07:13:51.202Z,30
2016-05-17T07:14:51.220Z,30
2016-05-17T07:15:51.254Z,25
2016-05-17T07:16:51.366Z,15
2016-05-17T07:17:51.291Z,15
2016-05-17T07:18:51.324Z,20
2016-05-17T07:19:51.187Z,20
2016-05-17T07:20:51.189Z,15
2016-05-17T07:21:51.692Z,15
2016-05-17T07:22:51.507Z,15
2016-05-17T07:23:51.353Z,15
2016-05-17T07:24:51.435Z,10
2016-05-17T07:25:51.312Z,15
2016-05-17T07:26:51.346Z,25
2016-05-17T07:27:51.506Z,25
2016-05-17T07:28:51.523Z,20
2016-05-17T07:29:51.557Z,30
2016-05-17T07:30:51.575Z,35
2016-05-17T07:31:51.437Z,35
2016-05-17T07:32:51.472Z,40
2016-05-17T07:33:51.693Z,40
2016-05-17T07:34:51.664Z,40
2016-05-17T07:35:51.370Z,40
2016-05-17T07:36:52.530Z,30
2016-05-17T07:37:51.578Z,35
2016-05-17T07:38:51.753Z,35
2016-05-17T07:39:51.616Z,30
2016-05-17T07:40:51.821Z,40
2016-05-17T07:41:51.793Z,40
2016-05-17T07:42:51.905Z,40
2016-05-17T07:43:51.876Z,40
2016-05-17T07:44:51.863Z,40
2016-05-17T07:45:51.740Z,40
2016-05-17T07:46:52.010Z,40
2016-05-17T07:47:51.935Z,40
2016-05-17T07:48:51.812Z,40
2016-05-17T07:49:52.080Z,45
2016-05-17T07:50:51.832Z,40
2016-05-17T07:51:51.898Z,45
2016-05-17T07:52:52.057Z,45
2016-05-17T07:53:52.075Z,45
2016-05-17T07:54:51.937Z,40
2016-05-17T07:55:51.970Z,40
2016-05-17T07:56:51.990Z,40
2016-05-17T07:57:52.164Z,40
2016-05-17T07:58:55.339Z,45
2016-05-17T07:59:52.092Z,40
2016-05-17T08:00:52.234Z,40
2016-05-17T08:01:52.237Z,45
2016-05-17T08:02:52.115Z,40
2016-05-17T08:03:52.305Z,35
2016-05-17T08:04:52.323Z,35
2016-05-17T08:05:52.435Z,35
2016-05-17T08:06:52.861Z,35
2016-05-17T08:07:52.503Z,40
2016-05-17T08:08:53.146Z,40
2016-05-17T08:09:52.462Z,40
2016-05-17T08:10:52.542Z,40
2016-05-17T08:11:52.561Z,40
2016-05-17T08:12:52.611Z,40
2016-05-17T08:13:52.613Z,30
2016-05-17T08:14:52.553Z,30
2016-05-17T08:15:52.602Z,30
2016-05-17T08:16:52.668Z,20
2016-05-17T08:17:52.702Z,25
2016-05-17T08:18:52.376Z,40
2016-05-17T08:19:52.504Z,30
2016-05-17T08:20:52.773Z,25
2016-05-17T08:21:52.540Z,30
2016-05-17T08:22:52.716Z,35
2016-05-17T08:23:52.749Z,25
2016-05-17T08:24:52.768Z,30
2016-05-17T08:25:52.879Z,30
2016-05-17T08:26:52.929Z,20
2016-05-17T08:27:52.682Z,30
2016-05-17T08:28:52.934Z,40
2016-05-17T08:29:52.875Z,40
2016-05-17T08:30:52.753Z,40
2016-05-17T08:31:52.912Z,35
2016-05-17T08:32:53.039Z,20
2016-05-17T08:33:52.839Z,15
2016-05-17T08:34:52.998Z,15
2016-05-17T08:35:52.704Z,25
2016-05-17T08:36:53.300Z,25
2016-05-17T08:37:53.069Z,25
2016-05-17T08:38:52.947Z,30
2016-05-17T08:39:53.089Z,25
2016-05-17T08:40:52.811Z,20
2016-05-17T08:41:53.158Z,20
2016-05-17T08:42:52.941Z,20
2016-05-17T08:43:53.194Z,20
2016-05-17T08:44:53.071Z,25
2016-05-17T08:45:53.105Z,15
2016-05-17T08:46:53.093Z,10
2016-05-17T08:47:53.377Z,10
2016-05-17T08:48:53.348Z,10
2016-05-17T08:49:53.507Z,10
2016-05-17T08:50:53.181Z,10
2016-05-17T08:51:53.481Z,5
2016-05-17T08:52:53.374Z,10
2016-05-17T08:53:53.393Z,10
2016-05-17T08:54:52.958Z,20
2016-05-17T08:55:53.288Z,25
2016-05-17T08:56:53.479Z,10
2016-05-17T08:57:53.498Z,5
2016-05-17T08:58:53.515Z,10
2016-05-17T08:59:53.393Z,10
2016-05-17T09:00:53.568Z,10
2016-05-17T09:01:53.445Z,20
2016-05-17T09:02:53.620Z,20
2016-05-17T09:03:53.466Z,30
2016-05-17T09:04:53.656Z,35
2016-05-17T09:05:53.690Z,40
2016-05-17T09:06:53.739Z,45
2016-05-17T09:07:53.570Z,50
2016-05-17T09:08:53.589Z,50
2016-05-17T09:09:53.608Z,55
2016-05-17T09:10:53.798Z,55
2016-05-17T09:11:53.816Z,55
2016-05-17T09:12:53.834Z,55
2016-05-17T09:13:53.696Z,60
2016-05-17T09:14:53.715Z,60
2016-05-17T09:15:53.749Z,65
2016-05-17T09:16:53.767Z,60
2016-05-17T09:17:53.801Z,65
2016-05-17T09:18:53.975Z,60
2016-05-17T09:19:53.993Z,55
2016-05-17T09:20:54.012Z,60
2016-05-17T09:21:54.327Z,60
2016-05-17T09:22:53.736Z,55
2016-05-17T09:23:54.099Z,55
2016-05-17T09:24:53.960Z,55
2016-05-17T09:25:54.119Z,55
2016-05-17T09:26:54.029Z,50
2016-05-17T09:27:54.187Z,50
2016-05-17T09:28:54.049Z,50
2016-05-17T09:29:54.224Z,50
2016-05-17T09:30:54.101Z,55
2016-05-17T09:31:54.260Z,55
2016-05-17T09:32:54.295Z,55
2016-05-17T09:33:54.329Z,55
2016-05-17T09:34:54.331Z,55
2016-05-17T09:35:54.193Z,55
2016-05-17T09:36:55.384Z,55
2016-05-17T09:37:54.511Z,55
2016-05-17T09:38:54.264Z,55
2016-05-17T09:39:54.439Z,50
2016-05-17T09:40:54.316Z,45
2016-05-17T09:41:54.334Z,55
2016-05-17T09:42:54.556Z,50
2016-05-17T09:43:54.386Z,55
2016-05-17T09:44:54.561Z,55
2016-05-17T09:45:54.579Z,35
2016-05-17T09:46:54.597Z,25
2016-05-17T09:47:54.632Z,20
2016-05-17T09:48:54.649Z,10
2016-05-17T09:49:54.355Z,15
2016-05-17T09:50:54.686Z,20
2016-05-17T09:51:55.518Z,15
2016-05-17T09:52:54.739Z,15
2016-05-17T09:53:54.758Z,15
2016-05-17T09:54:54.650Z,10
2016-05-17T09:55:54.654Z,10
2016-05-17T09:56:54.703Z,5
2016-05-17T09:57:54.705Z,5
2016-05-17T09:58:54.880Z,5
2016-05-17T09:59:54.898Z,10
2016-05-17T10:00:54.479Z,10
2016-05-17T10:01:54.951Z,5
2016-05-17T10:02:54.812Z,5
2016-05-17T10:03:55.003Z,15
2016-05-17T10:04:55.006Z,15
2016-05-17T10:05:55.023Z,20
2016-05-17T10:06:54.917Z,20
2016-05-17T10:07:55.076Z,25
2016-05-17T10:08:55.110Z,20
2016-05-17T10:09:55.128Z,15
2016-05-17T10:10:55.162Z,20
2016-05-17T10:11:55.024Z,20
2016-05-17T10:12:54.918Z,20
2016-05-17T10:13:55.248Z,15
2016-05-17T10:14:55.095Z,15
2016-05-17T10:15:54.942Z,15
2016-05-17T10:16:55.288Z,10
2016-05-17T10:17:55.322Z,15
2016-05-17T10:18:55.325Z,10
2016-05-17T10:19:55.358Z,10
2016-05-17T10:20:55.377Z,10
2016-05-17T10:21:55.505Z,10
2016-05-17T10:22:55.272Z,10
2016-05-17T10:23:55.432Z,10
2016-05-17T10:24:55.309Z,15
2016-05-17T10:25:55.500Z,25
2016-05-17T10:26:55.518Z,20
2016-05-17T10:27:55.535Z,15
2016-05-17T10:28:55.555Z,15
2016-05-17T10:29:55.448Z,15
2016-05-17T10:30:55.450Z,15
2016-05-17T10:31:55.485Z,15
2016-05-17T10:32:55.643Z,30
2016-05-17T10:33:55.693Z,25
2016-05-17T10:34:55.540Z,20
2016-05-17T10:35:55.729Z,15
2016-05-17T10:36:55.903Z,15
2016-05-17T10:37:55.767Z,20
2016-05-17T10:38:55.878Z,15
2016-05-17T10:39:55.506Z,10
2016-05-17T10:40:55.837Z,10
2016-05-17T10:41:55.887Z,15
2016-05-17T10:42:55.811Z,10
2016-05-17T10:43:55.751Z,10
2016-05-17T10:44:55.926Z,15
2016-05-17T10:45:56.069Z,25
2016-05-17T10:46:55.931Z,25
2016-05-17T10:47:56.090Z,25
2016-05-17T10:48:55.858Z,25
2016-05-17T10:49:56.049Z,20
2016-05-17T10:50:56.083Z,30
2016-05-17T10:51:56.398Z,55
2016-05-17T10:52:56.150Z,50
2016-05-17T10:53:55.810Z,40
2016-05-17T10:54:56.140Z,25
2016-05-17T10:55:56.268Z,25
2016-05-17T10:56:56.052Z,20
2016-05-17T10:57:56.054Z,15
2016-05-17T10:58:56.307Z,10
2016-05-17T10:59:56.107Z,5
2016-05-17T11:00:56.125Z,5
2016-05-17T11:01:56.377Z,5
2016-05-17T11:02:56.318Z,10
2016-05-17T11:03:56.195Z,10
2016-05-17T11:04:56.229Z,20
2016-05-17T11:05:56.248Z,25
2016-05-17T11:06:56.187Z,30
2016-05-17T11:07:56.440Z,40
2016-05-17T11:08:56.475Z,50
2016-05-17T11:09:56.509Z,50
2016-05-17T11:10:56.589Z,35
2016-05-17T11:11:56.389Z,35
2016-05-17T11:12:56.656Z,30
2016-05-17T11:13:56.581Z,30
2016-05-17T11:14:56.381Z,30
2016-05-17T11:15:56.618Z,35
2016-05-17T11:16:56.496Z,35
2016-05-17T11:17:56.655Z,35
2016-05-17T11:18:56.533Z,30
2016-05-17T11:19:56.551Z,25
2016-05-17T11:20:56.836Z,20
2016-05-17T11:21:57.524Z,25
2016-05-17T11:22:57.043Z,30
2016-05-17T11:23:56.797Z,30
2016-05-17T11:24:56.830Z,35
2016-05-17T11:25:56.692Z,35
2016-05-17T11:26:56.883Z,30
2016-05-17T11:27:56.885Z,20
2016-05-17T11:28:56.919Z,20
2016-05-17T11:29:56.718Z,25
2016-05-17T11:30:57.065Z,35
2016-05-17T11:31:57.052Z,35
2016-05-17T11:32:57.102Z,30
2016-05-17T11:33:57.088Z,25
2016-05-17T11:34:56.904Z,25
2016-05-17T11:35:56.923Z,25
2016-05-17T11:36:58.018Z,25
2016-05-17T11:37:57.130Z,25
2016-05-17T11:38:56.993Z,20
2016-05-17T11:39:57.011Z,20
2016-05-17T11:40:57.186Z,15
2016-05-17T11:41:57.064Z,15
2016-05-17T11:42:57.081Z,15
2016-05-17T11:43:57.209Z,15
2016-05-17T11:44:57.367Z,15
2016-05-17T11:45:57.402Z,20
2016-05-17T11:46:57.170Z,15
2016-05-17T11:47:57.330Z,15
2016-05-17T11:48:57.472Z,15
2016-05-17T11:49:57.225Z,15
2016-05-17T11:50:57.259Z,15
2016-05-17T11:51:57.558Z,15
2016-05-17T11:52:57.546Z,15
2016-05-17T11:53:57.486Z,20
2016-05-17T11:54:57.348Z,25
2016-05-17T11:55:57.366Z,20
2016-05-17T11:56:57.635Z,20
2016-05-17T11:57:57.559Z,20
2016-05-17T11:58:57.235Z,20
2016-05-17T11:59:57.300Z,25
2016-05-17T12:00:57.629Z,25
2016-05-17T12:01:57.538Z,30
2016-05-17T12:02:57.588Z,25
2016-05-17T12:03:57.716Z,20
2016-05-17T12:04:57.828Z,20
2016-05-17T12:05:57.597Z,25
2016-05-17T12:06:57.646Z,30
2016-05-17T12:07:57.711Z,30
2016-05-17T12:08:57.839Z,30
2016-05-17T12:09:57.779Z,30
2016-05-17T12:11:00.750Z,20
2016-05-17T12:11:57.909Z,15
2016-05-17T12:12:57.928Z,15
2016-05-17T12:13:57.837Z,15
2016-05-17T12:14:57.948Z,10
2016-05-17T12:15:57.826Z,10
2016-05-17T12:16:58.111Z,10
2016-05-17T12:17:58.035Z,10
2016-05-17T12:18:58.069Z,10
2016-05-17T12:19:58.072Z,10
2016-05-17T12:20:57.794Z,20
2016-05-17T12:21:58.358Z,20
2016-05-17T12:22:58.142Z,25
2016-05-17T12:23:58.082Z,25
2016-05-17T12:24:58.007Z,35
2016-05-17T12:25:58.057Z,35
2016-05-17T12:26:58.216Z,30
2016-05-17T12:27:58.358Z,25
2016-05-17T12:28:58.127Z,25
2016-05-17T12:29:58.177Z,20
2016-05-17T12:30:58.383Z,20
2016-05-17T12:31:58.448Z,20
2016-05-17T12:32:58.341Z,15
2016-05-17T12:33:58.375Z,15
2016-05-17T12:34:58.252Z,15
2016-05-17T12:35:58.427Z,15
2016-05-17T12:36:59.007Z,20
2016-05-17T12:37:58.526Z,20
2016-05-17T12:38:58.435Z,20
2016-05-17T12:39:58.516Z,15
2016-05-17T12:40:58.878Z,10
2016-05-17T12:41:58.568Z,10
2016-05-17T12:42:58.587Z,15
2016-05-17T12:43:58.606Z,15
2016-05-17T12:45:01.733Z,15
2016-05-17T12:45:58.657Z,15
2016-05-17T12:46:58.676Z,15
2016-05-17T12:47:58.709Z,15
2016-05-17T12:48:58.774Z,15
2016-05-17T12:49:58.542Z,15
2016-05-17T12:50:58.795Z,15
2016-05-17T12:51:59.298Z,15
2016-05-17T12:52:58.816Z,10
2016-05-17T12:53:58.678Z,15
2016-05-17T12:54:58.697Z,15
2016-05-17T12:55:58.778Z,15
2016-05-17T12:56:59.000Z,10
2016-05-17T12:57:58.799Z,10
2016-05-17T12:58:59.051Z,10
2016-05-17T12:59:58.960Z,15
2016-05-17T13:00:58.682Z,20
2016-05-17T13:01:59.029Z,15
2016-05-17T13:02:58.891Z,15
2016-05-17T13:03:58.893Z,10
2016-05-17T13:04:59.130Z,15
2016-05-17T13:05:59.227Z,15
2016-05-17T13:06:59.323Z,15
2016-05-17T13:07:58.998Z,20
2016-05-17T13:08:59.031Z,25
2016-05-17T13:09:59.143Z,30
2016-05-17T13:10:59.240Z,25
2016-05-17T13:11:59.415Z,30
2016-05-17T13:12:59.276Z,40
2016-05-17T13:13:59.326Z,45
2016-05-17T13:14:59.407Z,60
2016-05-17T13:15:59.363Z,60
2016-05-17T13:16:59.366Z,60
2016-05-17T13:17:59.322Z,55
2016-05-17T13:18:59.402Z,45
2016-05-17T13:19:59.436Z,35
2016-05-17T13:20:59.533Z,30
2016-05-17T13:22:00.051Z,30
2016-05-17T13:22:59.491Z,25
2016-05-17T13:23:59.525Z,25
2016-05-17T13:24:59.527Z,25
2016-05-17T13:25:59.750Z,30
2016-05-17T13:26:59.596Z,35
2016-05-17T13:27:59.708Z,35
2016-05-17T13:28:59.632Z,25
2016-05-17T13:29:59.494Z,20
2016-05-17T13:30:59.699Z,25
2016-05-17T13:31:59.780Z,40
2016-05-17T13:32:59.924Z,40
2016-05-17T13:33:59.740Z,30
2016-05-17T13:34:59.757Z,15
2016-05-17T13:35:59.807Z,10
2016-05-17T13:36:59.716Z,10
2016-05-17T13:37:59.922Z,10
2016-05-17T13:38:59.706Z,10
2016-05-17T13:40:00.006Z,5
2016-05-17T13:40:59.759Z,5
2016-05-17T13:41:59.996Z,5
2016-05-17T13:43:00.060Z,5
2016-05-17T13:43:59.985Z,5
2016-05-17T13:44:59.895Z,5
2016-05-17T13:46:00.037Z,5
2016-05-17T13:47:00.040Z,5
2016-05-17T13:48:00.106Z,5
2016-05-17T13:49:00.234Z,5
2016-05-17T13:49:59.954Z,5
2016-05-17T13:51:00.176Z,5
2016-05-17T13:52:00.913Z,0
2016-05-17T13:53:00.259Z,0
2016-05-17T13:54:00.106Z,0
2016-05-17T13:55:00.250Z,0
2016-05-17T13:56:00.095Z,0
2016-05-17T13:57:00.380Z,0
2016-05-17T13:58:00.257Z,0
2016-05-17T13:59:00.261Z,0
2016-05-17T14:00:00.263Z,0
2016-05-17T14:01:00.390Z,0
2016-05-17T14:02:00.455Z,0
2016-05-17T14:03:00.489Z,0
2016-05-17T14:04:00.352Z,0
2016-05-17T14:05:00.510Z,0
2016-05-17T14:06:00.372Z,0
2016-05-17T14:07:01.079Z,0
2016-05-17T14:08:01.159Z,5
2016-05-17T14:09:00.490Z,5
2016-05-17T14:10:00.649Z,5
2016-05-17T14:11:00.448Z,5
2016-05-17T14:12:00.623Z,5
2016-05-17T14:13:00.640Z,5
2016-05-17T14:14:00.659Z,0
2016-05-17T14:15:00.693Z,0
2016-05-17T14:16:00.742Z,0
2016-05-17T14:17:00.801Z,0
2016-05-17T14:18:00.860Z,5
2016-05-17T14:19:00.639Z,5
2016-05-17T14:20:00.995Z,5
2016-05-17T14:21:01.238Z,5
2016-05-17T14:22:01.615Z,5
2016-05-17T14:23:01.368Z,5
2016-05-17T14:24:01.323Z,5
2016-05-17T14:25:01.184Z,5
2016-05-17T14:26:01.398Z,5
2016-05-17T14:27:01.390Z,5
2016-05-17T14:28:01.414Z,5
2016-05-17T14:29:01.438Z,5